MUMZ/MZO METAR and TAF weather

Enter ICAO airport designator
Station Type Date Time Source
MUMZ METAR 2019/01/30 11:00 UTC NOAA

MUMZ 301100Z AUTO 07011KT 050V110 22/13 Q1018


Station Type Date Time Source
MUMZ Decoded METAR 2019/01/30 11:00 UTC NOAA

Manzanillo, Oriente, Cuba (MUMZ) 20-20N 077-07W 60M
Jan 30, 2019 - 06:00 AM EST / 2019.01.30 1100 UTC
Wind: from the ENE (070 degrees) at 13 MPH (11 KT) (direction variable):0
Temperature: 71 F (22 C)
Dew Point: 55 F (13 C)
Relative Humidity: 56%
Pressure (altimeter): 30.06 in. Hg (1018 hPa)
ob: MUMZ 301100Z AUTO 07011KT 050V110 22/13 Q1018
cycle: 11

Station Type Date Time Source
MUMZ TAF 2019/02/11 12:12 UTC NOAA

TAF COR MUMZ 111100Z 1112/1124 05006KT 9000 FEW020
BECMG 1115/1117 07012KT SCT020

Example: see airport list